createdAt,value
2022-11-03T00:01:01.238Z,100913.97
2022-11-03T00:06:05.880Z,100910.66
2022-11-03T00:11:11.427Z,100901.47
2022-11-03T00:16:14.385Z,100899.06
2022-11-03T00:21:18.823Z,100891.31
2022-11-03T00:26:23.669Z,100888.81
2022-11-03T00:31:28.389Z,100894.88
2022-11-03T00:36:35.178Z,100901.84
2022-11-03T00:41:38.932Z,100892.28
2022-11-03T00:46:42.219Z,100895.81
2022-11-03T00:51:46.588Z,100894.16
2022-11-03T00:56:49.526Z,100898.44
2022-11-03T01:01:52.905Z,100899.38
2022-11-03T01:06:59.793Z,100903.13
2022-11-03T01:12:07.175Z,100885.91
2022-11-03T01:17:12.727Z,100890.50
2022-11-03T01:22:18.001Z,100874.09
2022-11-03T01:27:22.579Z,100873.47
2022-11-03T01:32:25.483Z,100870.88
2022-11-03T01:37:30.817Z,100862.53
2022-11-03T01:42:33.741Z,100856.59
2022-11-03T01:47:37.815Z,100861.81
2022-11-03T01:52:46.052Z,100844.69
2022-11-03T01:57:56.870Z,100848.25
2022-11-03T02:03:01.272Z,100828.41
2022-11-03T02:08:11.011Z,100822.38
2022-11-03T02:13:20.441Z,100818.94
2022-11-03T02:18:27.032Z,100808.59
2022-11-03T02:23:38.013Z,100808.72
2022-11-03T02:28:42.979Z,100784.41
2022-11-03T02:33:55.012Z,100789.72
2022-11-03T02:39:03.001Z,100773.25
2022-11-03T02:44:13.544Z,100780.25
2022-11-03T02:49:16.925Z,100765.41
2022-11-03T02:54:24.978Z,100756.88
2022-11-03T02:59:35.698Z,100760.19
2022-11-03T03:04:43.628Z,100751.66
2022-11-03T03:09:54.466Z,100745.50
2022-11-03T03:15:02.294Z,100739.56
2022-11-03T03:20:09.456Z,100730.88
2022-11-03T03:25:16.855Z,100723.91
2022-11-03T03:30:21.823Z,100713.47
2022-11-03T03:35:27.864Z,100716.09
2022-11-03T03:40:35.153Z,100706.59
2022-11-03T03:45:40.457Z,100704.81
2022-11-03T03:50:45.565Z,100704.09
2022-11-03T03:55:52.177Z,100682.41
2022-11-03T04:00:56.620Z,100679.59
2022-11-03T04:05:59.659Z,100685.44
2022-11-03T04:11:20.230Z,100685.31
2022-11-03T04:16:42.209Z,100678.19
2022-11-03T04:22:02.999Z,100682.59
2022-11-03T04:27:20.167Z,100679.06
2022-11-03T04:32:24.647Z,100680.94
2022-11-03T04:37:29.577Z,100678.34
2022-11-03T04:42:34.648Z,100666.97
2022-11-03T04:47:38.975Z,100662.69
2022-11-03T04:52:42.088Z,100658.50
2022-11-03T04:57:45.751Z,100654.25
2022-11-03T05:02:55.933Z,100644.13
2022-11-03T05:08:00.309Z,100648.63
2022-11-03T05:13:03.673Z,100650.63
2022-11-03T05:18:19.006Z,100648.44
2022-11-03T05:23:22.880Z,100640.13
2022-11-03T05:28:28.068Z,100630.00
2022-11-03T05:33:35.722Z,100634.72
2022-11-03T05:38:38.660Z,100624.28
2022-11-03T05:43:41.644Z,100628.44
2022-11-03T05:48:46.043Z,100627.63
2022-11-03T05:53:51.808Z,100615.84
2022-11-03T05:58:56.927Z,100615.13
2022-11-03T06:04:05.806Z,100616.06
2022-11-03T06:09:14.061Z,100611.78
2022-11-03T06:14:24.448Z,100597.91
2022-11-03T06:19:32.471Z,100592.63
2022-11-03T06:24:36.159Z,100586.38
2022-11-03T06:29:39.396Z,100593.84
2022-11-03T06:34:47.144Z,100587.38
2022-11-03T06:39:50.801Z,100587.53
2022-11-03T06:44:53.850Z,100592.09
2022-11-03T06:50:00.664Z,100582.66
2022-11-03T06:55:22.781Z,100578.47
2022-11-03T07:00:34.034Z,100576.25
2022-11-03T07:05:40.396Z,100561.56
2022-11-03T07:10:43.713Z,100565.28
2022-11-03T07:15:47.352Z,100566.25
2022-11-03T07:20:52.998Z,100556.69
2022-11-03T07:26:00.519Z,100549.84
2022-11-03T07:31:16.380Z,100550.78
2022-11-03T07:36:23.978Z,100547.00
2022-11-03T07:41:33.080Z,100549.44
2022-11-03T07:46:38.045Z,100538.75
2022-11-03T07:51:42.889Z,100532.69
2022-11-03T07:56:48.785Z,100521.34
2022-11-03T08:01:54.497Z,100509.44
2022-11-03T08:06:59.170Z,100491.16
2022-11-03T08:12:02.102Z,100486.69
2022-11-03T08:17:05.422Z,100474.03
2022-11-03T08:22:10.172Z,100472.34
2022-11-03T08:27:13.071Z,100470.22
2022-11-03T08:32:16.032Z,100458.88
2022-11-03T08:37:20.491Z,100452.28
2022-11-03T08:42:23.608Z,100449.13
2022-11-03T08:47:26.528Z,100447.66
2022-11-03T08:52:31.080Z,100437.03
2022-11-03T08:57:34.065Z,100430.97
2022-11-03T09:02:37.263Z,100406.09
2022-11-03T09:13:05.950Z,100395.69
2022-11-03T09:18:09.998Z,100401.22
2022-11-03T09:23:14.705Z,100389.44
2022-11-03T09:28:18.267Z,100382.78
2022-11-03T09:33:21.261Z,100378.47
2022-11-03T09:38:25.512Z,100374.19
2022-11-03T09:43:28.533Z,100360.44
2022-11-03T09:48:31.550Z,100356.28
2022-11-03T09:53:35.967Z,100339.94
2022-11-03T09:58:38.955Z,100334.91
2022-11-03T10:03:42.067Z,100335.16
2022-11-03T10:08:48.707Z,100324.59
2022-11-03T10:13:56.125Z,100309.41
2022-11-03T10:19:00.909Z,100289.63
2022-11-03T10:24:07.063Z,100283.31
2022-11-03T10:34:34.458Z,100261.88
2022-11-03T10:39:39.289Z,100256.91
2022-11-03T10:44:42.355Z,100256.66
2022-11-03T10:49:45.328Z,100250.00
2022-11-03T10:54:50.969Z,100240.66
2022-11-03T10:59:55.565Z,100240.41
2022-11-03T11:05:00.946Z,100216.59
2022-11-03T11:10:12.952Z,100212.47
2022-11-03T11:15:39.664Z,100212.16
2022-11-03T11:20:43.203Z,100211.69
2022-11-03T11:26:14.550Z,100192.94
2022-11-03T11:32:12.391Z,100185.41
2022-11-03T11:37:36.140Z,100169.09
2022-11-03T11:43:22.935Z,100156.91
2022-11-03T11:48:26.146Z,100152.59
2022-11-03T11:53:39.180Z,100142.53
2022-11-03T11:58:46.489Z,100141.38
2022-11-03T12:03:51.138Z,100128.00
2022-11-03T12:09:05.948Z,100101.63
2022-11-03T12:14:25.984Z,100091.59
2022-11-03T12:19:37.210Z,100083.00
2022-11-03T12:24:52.994Z,100071.50
2022-11-03T12:29:59.557Z,100055.81
2022-11-03T12:35:03.037Z,100049.72
2022-11-03T12:40:07.360Z,100028.06
2022-11-03T12:45:13.883Z,100011.09
2022-11-03T12:50:17.275Z,99997.25
2022-11-03T12:55:20.363Z,99983.75
2022-11-03T13:00:24.984Z,99987.22
2022-11-03T13:05:27.990Z,99988.06
2022-11-03T13:10:31.077Z,99979.03
2022-11-03T13:15:35.699Z,99954.63
2022-11-03T13:20:39.200Z,99945.22
2022-11-03T13:25:52.864Z,99938.25
2022-11-03T13:30:57.554Z,99932.28
2022-11-03T13:36:00.782Z,99920.44
2022-11-03T13:41:08.430Z,99906.53
2022-11-03T13:46:14.049Z,99890.25
2022-11-03T13:51:18.626Z,99879.69
2022-11-03T13:56:22.753Z,99867.16
2022-11-03T14:01:27.857Z,99850.13
2022-11-03T14:06:31.385Z,99834.50
2022-11-03T14:11:52.207Z,99824.09
2022-11-03T14:16:56.841Z,99814.91
2022-11-03T14:21:59.969Z,99820.19
2022-11-03T14:27:03.386Z,99820.81
2022-11-03T14:32:08.223Z,99805.00
2022-11-03T14:37:11.809Z,99808.47
2022-11-03T14:42:16.768Z,99795.31
2022-11-03T14:47:22.772Z,99774.28
2022-11-03T14:52:26.396Z,99756.50
2022-11-03T14:57:29.783Z,99741.56
2022-11-03T15:02:34.276Z,99734.56
2022-11-03T15:07:37.291Z,99722.75
2022-11-03T15:12:40.374Z,99723.63
2022-11-03T15:17:45.052Z,99713.25
2022-11-03T15:28:12.972Z,99718.94
2022-11-03T15:33:17.541Z,99708.78
2022-11-03T15:38:20.866Z,99716.88
2022-11-03T15:43:23.909Z,99699.16
2022-11-03T15:48:33.476Z,99683.53
2022-11-03T15:53:37.543Z,99676.28
2022-11-03T15:58:40.992Z,99668.09
2022-11-03T16:03:45.368Z,99665.81
2022-11-03T16:08:48.334Z,99656.13
2022-11-03T16:13:51.638Z,99643.97
2022-11-03T16:18:56.231Z,99634.13
2022-11-03T16:23:59.299Z,99623.78
2022-11-03T16:29:02.406Z,99608.69
2022-11-03T16:34:06.780Z,99602.13
2022-11-03T16:39:10.834Z,99588.81
2022-11-03T16:44:14.925Z,99578.31
2022-11-03T16:49:19.225Z,99576.38
2022-11-03T16:54:22.769Z,99562.28
2022-11-03T16:59:26.590Z,99553.59
2022-11-03T17:04:31.033Z,99547.34
2022-11-03T17:09:34.026Z,99540.31
2022-11-03T17:14:37.290Z,99538.03
2022-11-03T17:19:41.971Z,99520.13
2022-11-03T17:24:45.099Z,99513.41
2022-11-03T17:29:50.574Z,99494.00
2022-11-03T17:34:55.882Z,99493.84
2022-11-03T17:39:58.908Z,99491.25
2022-11-03T17:45:02.273Z,99496.19
2022-11-03T17:50:07.431Z,99474.38
2022-11-03T17:55:18.332Z,99461.91
2022-11-03T18:00:22.495Z,99469.31
2022-11-03T18:05:30.346Z,99469.16
2022-11-03T18:10:36.863Z,99464.09
2022-11-03T18:15:41.607Z,99451.59
2022-11-03T18:20:53.161Z,99435.19
2022-11-03T18:25:56.946Z,99433.25
2022-11-03T18:30:59.889Z,99426.00
2022-11-03T18:36:08.241Z,99424.38
2022-11-03T18:41:36.116Z,99405.34
2022-11-03T18:46:39.357Z,99390.59
2022-11-03T18:51:49.002Z,99395.03
2022-11-03T18:56:54.231Z,99388.00
2022-11-03T19:01:57.421Z,99375.34
2022-11-03T19:07:03.869Z,99367.00
2022-11-03T19:12:07.598Z,99346.50
2022-11-03T19:17:24.227Z,99347.81
2022-11-03T19:22:28.891Z,99342.41
2022-11-03T19:27:34.526Z,99329.31
2022-11-03T19:32:43.022Z,99340.44
2022-11-03T19:37:49.349Z,99333.53
2022-11-03T19:42:52.388Z,99315.66
2022-11-03T19:48:23.225Z,99305.38
2022-11-03T19:53:27.741Z,99293.72
2022-11-03T19:58:31.021Z,99285.06
2022-11-03T20:03:33.946Z,99289.97
2022-11-03T20:08:39.982Z,99289.63
2022-11-03T20:13:44.955Z,99290.59
2022-11-03T20:18:48.906Z,99282.28
2022-11-03T20:23:53.527Z,99279.50
2022-11-03T20:28:57.582Z,99274.41
2022-11-03T20:34:00.593Z,99255.22
2022-11-03T20:39:05.149Z,99253.75
2022-11-03T20:44:10.095Z,99252.59
2022-11-03T20:49:13.123Z,99256.53
2022-11-03T20:54:19.571Z,99249.31
2022-11-03T20:59:24.825Z,99234.44
2022-11-03T21:04:29.837Z,99231.97
2022-11-03T21:09:34.477Z,99233.63
2022-11-03T21:14:37.467Z,99228.84
2022-11-03T21:19:57.809Z,99207.25
2022-11-03T21:25:02.751Z,99224.09
2022-11-03T21:30:07.780Z,99214.78
2022-11-03T21:35:15.661Z,99218.03
2022-11-03T21:40:19.982Z,99217.56
2022-11-03T21:45:22.986Z,99228.03
2022-11-03T21:50:26.562Z,99250.13
2022-11-03T21:55:31.121Z,99249.13
2022-11-03T22:00:34.724Z,99242.06
2022-11-03T22:05:37.973Z,99232.41
2022-11-03T22:10:43.489Z,99239.13
2022-11-03T22:16:04.054Z,99228.28
2022-11-03T22:21:24.608Z,99226.97
2022-11-03T22:26:46.225Z,99206.66
2022-11-03T22:31:49.222Z,99202.88
2022-11-03T22:36:52.506Z,99195.34
2022-11-03T22:42:14.208Z,99195.34
2022-11-03T22:47:18.803Z,99194.00
2022-11-03T22:52:22.341Z,99166.00
2022-11-03T22:57:26.739Z,99141.16
2022-11-03T23:02:29.705Z,99146.72
2022-11-03T23:07:35.884Z,99138.88
2022-11-03T23:12:43.095Z,99143.44
2022-11-03T23:18:03.813Z,99147.56
2022-11-03T23:23:07.227Z,99145.44
2022-11-03T23:28:11.834Z,99148.38
2022-11-03T23:33:14.829Z,99161.31
2022-11-03T23:38:18.079Z,99170.31
2022-11-03T23:43:22.474Z,99164.09
2022-11-03T23:48:48.114Z,99156.84
2022-11-03T23:53:51.638Z,99130.88
2022-11-03T23:58:56.557Z,99138.72
